Hlavní strana
METAR-TAF:

METAR-TAF

Letiště :

Letecká základna Aviano

Aviano, Itálie

zeměpisná šířka: 46-02N, zeměpisná délka: 012-36E, výška: 128 m

Aktuální stav počasí

Zpráva byla vytvořena před 1 hodinou a 7 minutami, v 06:55 UTC
Západní vítr 3 kt
Teplota 21°C
Vlhkost vzduchu 78%
Tlak 1019 hPa
Viditelnost 10 km a více
Skoro jasno ve výšce 5000 ft

METAR: LIPA 260655Z 26003KT 9999 FEW050 21/17 Q1019 RMK FEW VIS MIN 9999 WIND THR05 /////KT WIND THR23 /////KT A3011 BLU

Čas: 10:02 (08:02 UTC)


TAF: chybějící

Stav a předpovědi počasí z více než 4 000 letišť (zprávy METAR a TAF).

Červené a žluté tečky na mapě představují dostupné meteorologické stanice.

Když kurzor umístíte na tečku, zobrazí se název stanice.

Pak kliknutím zobrazíte stav a předpověď počasí.

Chcete-li změnit mapu, kliknutím na zelené tlačítko se znaménkem +mapu přiblížíte, kliknutím na zelené tlačítko se znaménkem – mapu oddálíte a kliknutím na zelené šipky přejdete na sousední mapy.


METAR-TAF: